Betekom 2018 - Herfstjogging

Saturday, October 6, 2018 15:29 (GMT+2) - Final results

Race info
Sport: Running - road
Location: Begijnendijk, Belgium
Start type: Mass start
Racers: 40
Timed on: samsung SM-G361F
Timed with: Webscorer PRO 3.1
Updated: Saturday, October 13, 2018 09:27 (GMT+2)
Organized by: Regio Oost-Brabant Atletiek
Race website: www.roba-atletiek.be

Contact organizer

Use this form to send an email to the organizer.

Your name
Your email address
Confirm email address
Message to organizer
Send

Place Bib Racer name Affiliation Category Gender Finish time
1235DREESEN LIAMTREMELO KADM 10:12.7--100%35.62%35.85%
2268WILLEMS STEVETIELT-WINGE MAS M35M 10:26.4+0:13.7+2.24%97.81%34.18%34.42%
3254WUYTS LODEWERCHTER SCHOLM 10:37.2+0:24.5+4.00%96.16%33.04%33.28%
4257DE VRIES JEFFTIELT-WINGE SENM 10:55.2+0:42.5+6.94%93.51%31.15%31.40%
5224GEERAERTS GERTBAAL SENM 11:03.5+0:50.8+8.29%92.34%30.28%30.53%
6216DANIELS KARELBEGIJNENDIJK KADM 11:34.3+1:21.6+13.32%88.25%27.04%27.31%
7238VOS JORENBAAL SENM 11:37.0+1:24.3+13.76%87.91%26.76%27.02%
8242HUYSMANS MARCAARSCHOT MAS M60M 12:12.5+1:59.8+19.55%83.65%23.03%23.31%
9250DECOSTER JELLEBOUTERSEM MINM 12:42.4+2:29.7+24.43%80.36%19.88%20.18%
10267VAN CAMPENHOUT DAVESCHRIEK MAS M35M 12:46.3+2:33.6+25.07%79.96%19.47%19.77%
11230DE COCQ ROGERHEIST-O/D-BERG - BERGLOPERS MAS M65M 13:31.6+3:18.9+32.46%75.49%14.71%15.02%
12237VERBIST CHIELBEGIJNENDIJK KADM 13:39.4+3:26.7+33.74%74.77%13.89%14.21%
13221DE LANGE GEERTBAAL MAS M45M 13:45.8+3:33.1+34.78%74.19%13.22%13.54%
14247MERTENS JOELBINKOM MAS M55M 13:59.5+3:46.8+37.02%72.98%11.78%12.10%
15215VAN DE VLOED WIMRAMSEL PUPM 14:39.6+4:26.9+43.56%69.66%7.57%7.90%
16217MILIS NICOAARSCHOT MAS M40M 14:41.2+4:28.5+43.82%69.53%7.40%7.74%
17220VUERINCKX FRERAMSEL PUPM 14:41.9+4:29.2+43.94%69.47%7.33%7.66%
18205SUMMA MATTISBETEKOM PUPM 15:13.6+5:00.9+49.11%67.06%4.00%4.35%
19260VLEMINX JANRAMSEL MAS M55M 15:13.7+5:01.0+49.13%67.06%3.99%4.33%
20208VERSCHOREN GUSTTREMELO BENM 15:54.6+5:41.9+55.80%64.18%-0.31%0.05%
21206SUMMA SANDROBETEKOM MINM 15:55.6+5:42.9+55.97%64.12%-0.42%-0.05%
22225DE LANGE FLORIANBAAL PUPM 15:58.3+5:45.6+56.41%63.94%-0.70%-0.34%
23244POTEMANS ROGERGELRODE - SPORTIVA GELRODE MAS M60M 16:27.1+6:14.4+61.11%62.07%-3.73%-3.35%
24259WILLEMS LIAMTIELT-WINGE BENM 16:47.0+6:34.3+64.35%60.84%-5.82%-5.43%
25227CONINX JORRENBEGIJNENDIJK MINM 17:06.9+6:54.2+67.60%59.67%-7.91%-7.52%
26243CUMPS WILLYGELRODE - SPORTIVA GELRODE MAS M65M 17:31.1+7:18.4+71.55%58.29%-10.45%-10.05%
27231RENIERS MARCAARSCHOT MAS M50M 17:37.0+7:24.3+72.52%57.97%-11.07%-10.67%
28248DECA KARELAARSCHOT MAS M65M 18:05.5+7:52.8+77.17%56.44%-14.07%-13.65%
29249DEMARSIN PAULRILLAAR MAS M65M 18:10.8+7:58.1+78.03%56.17%-14.63%-14.21%
30252CORBEELS DANNYHOLSBEEK MAS M45M 18:31.7+8:19.0+81.44%55.11%-16.82%-16.40%
31234DEMAEGHT JANLANGDORP MAS M60M 18:54.5+8:41.8+85.16%54.01%-19.22%-18.78%
32485x1 xM 18:57.0+8:44.3+85.57%53.89%-19.48%-19.05%
33241VAN LIER STEFANTREMELO MAS M60M 19:08.1+8:55.4+87.38%53.37%-20.65%-20.21%
34255VAN VLASSELAER PASCALWESTERLO SENM 19:25.6+9:12.9+90.24%52.57%-22.49%-22.04%
35261GLORIEUX ROBINBEGIJNENDIJK SENM 19:29.4+9:16.7+90.86%52.39%-22.88%-22.44%
36408x2 xM 19:36.2+9:23.5+91.97%52.09%-23.60%-23.15%
37232HOLEMANS PAULWEZEMAAL MAS M70M 20:07.1+9:54.4+97.01%50.76%-26.85%-26.38%
38226JANSSENS RIKLUBBEEK MAS M85M 21:34.3+11:21.6+111.25%47.34%-36.01%-35.51%
39209ARTS-STEMPHER LENNIEEINDHOVEN MAS M65M 22:15.2+12:02.5+117.92%45.89%-40.31%-39.80%
40251VAN ROMPAEY LOUISAARSCHOT MAS M65M 23:18.1+13:05.4+128.19%43.82%-46.92%-46.38%